createdAt,value
2017-08-16T00:01:14.576Z,24.67
2017-08-16T00:03:42.060Z,24.43
2017-08-16T00:06:09.569Z,25.13
2017-08-16T00:08:37.105Z,23.90
2017-08-16T00:11:04.648Z,22.80
2017-08-16T00:13:32.197Z,24.57
2017-08-16T00:15:59.684Z,23.27
2017-08-16T00:18:27.276Z,30.87
2017-08-16T00:20:54.770Z,27.13
2017-08-16T00:23:22.396Z,26.43
2017-08-16T00:25:49.885Z,28.07
2017-08-16T00:28:18.168Z,29.10
2017-08-16T00:30:45.722Z,29.63
2017-08-16T00:33:13.236Z,30.00
2017-08-16T00:35:41.493Z,29.73
2017-08-16T00:38:09.889Z,28.40
2017-08-16T00:40:37.393Z,30.93
2017-08-16T00:43:04.889Z,27.73
2017-08-16T00:45:32.418Z,27.60
2017-08-16T00:47:59.916Z,28.90
2017-08-16T00:50:27.504Z,28.90
2017-08-16T00:52:55.058Z,33.73
2017-08-16T00:55:22.572Z,29.13
2017-08-16T00:57:50.880Z,30.13
2017-08-16T01:00:18.400Z,31.67
2017-08-16T01:02:45.890Z,31.93
2017-08-16T01:05:13.401Z,36.73
2017-08-16T01:07:40.897Z,33.50
2017-08-16T01:10:09.172Z,35.07
2017-08-16T01:12:37.449Z,37.73
2017-08-16T01:15:04.993Z,36.30
2017-08-16T01:17:32.869Z,38.87
2017-08-16T01:20:00.361Z,39.00
2017-08-16T01:22:28.647Z,40.07
2017-08-16T01:24:56.200Z,43.23
2017-08-16T01:27:23.711Z,33.90
2017-08-16T01:29:51.965Z,39.60
2017-08-16T01:32:19.473Z,37.40
2017-08-16T01:34:46.956Z,35.27
2017-08-16T01:37:15.233Z,34.00
2017-08-16T01:39:42.724Z,34.47
2017-08-16T01:42:10.254Z,32.03
2017-08-16T01:44:37.776Z,36.63
2017-08-16T01:47:05.264Z,35.53
2017-08-16T01:49:32.775Z,35.00
2017-08-16T01:52:00.300Z,33.27
2017-08-16T01:54:27.812Z,37.40
2017-08-16T01:56:55.301Z,36.27
2017-08-16T01:59:22.859Z,42.33
2017-08-16T02:01:50.381Z,33.43
2017-08-16T02:04:17.889Z,33.47
2017-08-16T02:06:45.490Z,34.77
2017-08-16T02:09:13.009Z,32.57
2017-08-16T02:11:40.553Z,33.47
2017-08-16T02:14:08.064Z,34.77
2017-08-16T02:16:36.357Z,40.63
2017-08-16T02:19:03.876Z,32.90
2017-08-16T02:21:32.132Z,39.50
2017-08-16T02:24:00.397Z,35.70
2017-08-16T02:26:28.687Z,42.23
2017-08-16T02:28:56.228Z,41.17
2017-08-16T02:31:23.772Z,47.37
2017-08-16T02:33:51.270Z,42.60
2017-08-16T02:36:18.862Z,48.20
2017-08-16T02:38:46.413Z,51.83
2017-08-16T02:41:13.973Z,44.57
2017-08-16T02:43:41.465Z,41.60
2017-08-16T02:46:09.739Z,50.20
2017-08-16T02:48:37.990Z,39.63
2017-08-16T02:51:06.265Z,39.43
2017-08-16T02:53:33.820Z,36.57
2017-08-16T02:56:01.328Z,47.03
2017-08-16T02:58:29.584Z,48.00
2017-08-16T03:00:57.109Z,43.27
2017-08-16T03:03:24.606Z,44.43
2017-08-16T03:05:52.154Z,39.17
2017-08-16T03:08:19.660Z,42.90
2017-08-16T03:10:47.244Z,44.67
2017-08-16T03:13:14.744Z,47.53
2017-08-16T03:15:42.255Z,42.53
2017-08-16T03:18:09.775Z,47.33
2017-08-16T03:20:37.269Z,44.27
2017-08-16T03:23:04.856Z,47.50
2017-08-16T03:25:32.400Z,40.20
2017-08-16T03:27:59.908Z,50.10
2017-08-16T03:30:28.205Z,44.27
2017-08-16T03:32:55.712Z,56.93
2017-08-16T03:35:23.292Z,55.07
2017-08-16T03:37:50.840Z,55.33
2017-08-16T03:40:18.398Z,55.57
2017-08-16T03:42:45.885Z,47.40
2017-08-16T03:45:13.439Z,50.67
2017-08-16T03:47:40.938Z,62.73
2017-08-16T03:50:08.452Z,48.30
2017-08-16T03:52:35.932Z,61.10
2017-08-16T03:55:04.224Z,57.80
2017-08-16T03:57:31.769Z,54.57
2017-08-16T03:59:59.273Z,52.70
2017-08-16T04:02:26.861Z,48.93
2017-08-16T04:04:54.527Z,57.57
2017-08-16T04:07:22.150Z,51.63
2017-08-16T04:09:49.701Z,61.10
2017-08-16T04:12:17.236Z,50.27
2017-08-16T04:14:44.808Z,58.07
2017-08-16T04:17:12.324Z,45.80
2017-08-16T04:19:39.871Z,46.83
2017-08-16T04:22:07.414Z,51.87
2017-08-16T04:24:34.905Z,47.87
2017-08-16T04:27:02.413Z,60.10
2017-08-16T04:29:29.940Z,51.10
2017-08-16T04:31:57.454Z,59.87
2017-08-16T04:34:25.771Z,50.73
2017-08-16T04:36:53.287Z,48.03
2017-08-16T04:39:20.863Z,51.47
2017-08-16T04:41:48.382Z,52.13
2017-08-16T04:44:15.934Z,51.67
2017-08-16T04:46:43.477Z,49.10
2017-08-16T04:49:10.977Z,60.30
2017-08-16T04:51:38.565Z,52.50
2017-08-16T04:54:06.060Z,49.87
2017-08-16T04:56:33.550Z,52.20
2017-08-16T04:59:01.200Z,43.47
2017-08-16T05:01:28.732Z,50.70
2017-08-16T05:03:56.281Z,46.47
2017-08-16T05:06:23.777Z,46.90
2017-08-16T05:08:51.373Z,50.93
2017-08-16T05:11:19.042Z,44.80
2017-08-16T05:13:46.577Z,46.83
2017-08-16T05:16:14.085Z,58.37
2017-08-16T05:18:42.473Z,60.53
2017-08-16T05:21:09.964Z,57.37
2017-08-16T05:23:37.580Z,56.87
2017-08-16T05:26:05.098Z,57.50
2017-08-16T05:28:32.661Z,58.07
2017-08-16T05:31:00.182Z,60.50
2017-08-16T05:33:27.718Z,49.00
2017-08-16T05:35:55.272Z,62.17
2017-08-16T05:38:22.822Z,58.90
2017-08-16T05:40:50.344Z,50.30
2017-08-16T05:43:17.838Z,51.17
2017-08-16T05:45:46.033Z,54.57
2017-08-16T05:48:14.329Z,57.97
2017-08-16T05:50:41.835Z,60.23
2017-08-16T05:53:10.105Z,52.70
2017-08-16T05:55:38.510Z,61.73
2017-08-16T05:58:06.036Z,57.60
2017-08-16T06:00:33.536Z,54.20
2017-08-16T06:03:01.030Z,60.60
2017-08-16T06:05:28.554Z,53.77
2017-08-16T06:07:56.052Z,59.43
2017-08-16T06:10:23.562Z,58.30
2017-08-16T06:12:51.113Z,52.33
2017-08-16T06:15:18.728Z,54.67
2017-08-16T06:17:46.298Z,57.90
2017-08-16T06:20:13.784Z,65.00
2017-08-16T06:22:41.316Z,57.37
2017-08-16T06:25:08.813Z,53.37
2017-08-16T06:27:36.411Z,54.00
2017-08-16T06:30:03.904Z,61.80
2017-08-16T06:32:31.441Z,60.60
2017-08-16T06:34:58.923Z,60.10
2017-08-16T06:37:26.433Z,52.53
2017-08-16T06:39:53.964Z,61.23
2017-08-16T06:42:21.476Z,59.47
2017-08-16T06:44:49.975Z,59.83
2017-08-16T06:47:17.502Z,56.43
2017-08-16T06:49:45.756Z,51.87
2017-08-16T06:52:13.252Z,57.43
2017-08-16T06:54:40.761Z,54.90
2017-08-16T06:57:08.457Z,55.93
2017-08-16T06:59:36.001Z,51.17
2017-08-16T07:02:03.542Z,52.07
2017-08-16T07:04:31.048Z,50.40
2017-08-16T07:06:58.624Z,56.27
2017-08-16T07:09:26.177Z,63.90
2017-08-16T07:11:53.667Z,68.03
2017-08-16T07:14:21.256Z,62.87
2017-08-16T07:16:48.810Z,67.80
2017-08-16T07:19:16.353Z,71.93
2017-08-16T07:21:43.893Z,62.57
2017-08-16T07:24:11.474Z,65.93
2017-08-16T07:26:38.989Z,60.83
2017-08-16T07:29:06.473Z,68.60
2017-08-16T07:31:34.172Z,62.27
2017-08-16T07:34:01.728Z,57.40
2017-08-16T07:36:29.256Z,66.20
2017-08-16T07:38:56.830Z,59.23
2017-08-16T07:41:24.339Z,68.40
2017-08-16T07:43:51.893Z,65.60
2017-08-16T07:46:19.392Z,60.93
2017-08-16T07:48:46.875Z,57.27
2017-08-16T07:51:14.389Z,52.23
2017-08-16T07:53:41.924Z,52.50
2017-08-16T07:56:09.412Z,48.97
2017-08-16T07:58:36.925Z,48.20
2017-08-16T08:01:04.465Z,55.87
2017-08-16T08:03:31.999Z,44.90
2017-08-16T08:05:59.569Z,43.53
2017-08-16T08:08:27.088Z,48.97
2017-08-16T08:10:54.632Z,44.70
2017-08-16T08:13:22.143Z,44.37
2017-08-16T08:15:49.820Z,36.00
2017-08-16T08:18:17.440Z,40.27
2017-08-16T08:20:44.994Z,34.53
2017-08-16T08:23:12.509Z,33.07
2017-08-16T08:25:40.009Z,31.13
2017-08-16T08:28:07.524Z,34.97
2017-08-16T08:30:35.034Z,34.50
2017-08-16T08:33:03.352Z,33.87
2017-08-16T08:35:30.972Z,33.87
2017-08-16T08:37:58.460Z,30.73
2017-08-16T08:40:25.975Z,35.53
2017-08-16T08:42:53.477Z,26.87
2017-08-16T08:45:21.758Z,26.73
2017-08-16T08:47:49.309Z,26.63
2017-08-16T08:50:16.856Z,25.40
2017-08-16T08:52:44.397Z,27.50
2017-08-16T08:55:11.909Z,26.33
2017-08-16T08:57:40.164Z,21.93
2017-08-16T09:00:07.768Z,18.90
2017-08-16T09:02:35.301Z,21.13
2017-08-16T09:05:02.857Z,19.27
2017-08-16T09:07:30.379Z,18.00
2017-08-16T09:09:57.925Z,20.10
2017-08-16T09:12:25.436Z,18.70
2017-08-16T09:14:53.693Z,17.70
2017-08-16T09:17:21.985Z,19.70
2017-08-16T09:19:49.532Z,17.97
2017-08-16T09:22:17.043Z,15.70
2017-08-16T09:24:45.342Z,15.47
2017-08-16T09:27:12.875Z,14.63
2017-08-16T09:29:40.417Z,14.17
2017-08-16T09:32:07.926Z,12.57
2017-08-16T09:34:35.509Z,14.60
2017-08-16T09:37:02.996Z,12.67
2017-08-16T09:39:30.597Z,13.90
2017-08-16T09:41:58.140Z,12.53
2017-08-16T09:44:25.651Z,17.70
2017-08-16T09:46:53.945Z,12.70
2017-08-16T09:49:21.454Z,11.10
2017-08-16T09:51:48.932Z,11.00
2017-08-16T09:54:16.469Z,11.93
2017-08-16T09:56:44.032Z,11.70
2017-08-16T09:59:11.555Z,11.83
2017-08-16T10:01:39.073Z,12.10
2017-08-16T10:04:07.493Z,12.83
2017-08-16T10:06:34.977Z,8.73
2017-08-16T10:09:02.533Z,8.13
2017-08-16T10:11:30.819Z,7.37
2017-08-16T10:13:58.456Z,9.50
2017-08-16T10:16:25.941Z,8.07
2017-08-16T10:18:53.554Z,11.53
2017-08-16T10:21:21.088Z,7.13
2017-08-16T10:23:48.664Z,7.17
2017-08-16T10:26:16.163Z,7.73
2017-08-16T10:28:44.449Z,11.40
2017-08-16T10:31:11.982Z,8.93
2017-08-16T10:33:39.541Z,6.70
2017-08-16T10:36:07.087Z,8.97
2017-08-16T10:38:34.626Z,8.63
2017-08-16T10:41:02.133Z,6.40
2017-08-16T10:43:30.451Z,7.77
2017-08-16T10:45:57.956Z,12.83
2017-08-16T10:48:25.539Z,8.10
2017-08-16T10:50:53.105Z,7.67
2017-08-16T10:53:20.625Z,8.63
2017-08-16T10:55:48.105Z,11.13
2017-08-16T10:58:16.364Z,8.90
2017-08-16T11:00:43.849Z,9.90
2017-08-16T11:03:11.374Z,9.00
2017-08-16T11:05:38.908Z,8.23
2017-08-16T11:08:06.557Z,6.23
2017-08-16T11:10:34.109Z,6.50
2017-08-16T11:13:01.669Z,7.50
2017-08-16T11:15:29.190Z,5.90
2017-08-16T11:17:56.734Z,6.53
2017-08-16T11:20:24.224Z,5.43
2017-08-16T11:22:51.744Z,9.03
2017-08-16T11:25:19.282Z,9.90
2017-08-16T11:27:46.909Z,10.33
2017-08-16T11:30:14.496Z,8.30
2017-08-16T11:32:42.061Z,7.60
2017-08-16T11:35:09.712Z,7.97
2017-08-16T11:37:37.262Z,10.00
2017-08-16T11:40:04.776Z,10.80
2017-08-16T11:42:32.340Z,12.17
2017-08-16T11:44:59.846Z,11.03
2017-08-16T11:47:28.136Z,10.07
2017-08-16T11:49:55.647Z,11.43
2017-08-16T11:52:23.213Z,8.53
2017-08-16T11:54:50.761Z,9.90
2017-08-16T11:57:18.309Z,12.60
2017-08-16T11:59:45.810Z,9.47
2017-08-16T12:02:13.418Z,10.83
2017-08-16T12:04:40.932Z,11.50
2017-08-16T12:07:08.589Z,13.27
2017-08-16T12:09:36.156Z,9.93
2017-08-16T12:12:03.667Z,9.90
2017-08-16T12:14:31.177Z,7.57
2017-08-16T12:16:58.656Z,9.10
2017-08-16T12:19:26.180Z,9.00
2017-08-16T12:21:54.462Z,14.63
2017-08-16T12:24:21.946Z,10.90
2017-08-16T12:26:49.449Z,9.93
2017-08-16T12:29:17.015Z,9.10
2017-08-16T12:31:45.285Z,8.00
2017-08-16T12:34:12.765Z,8.37
2017-08-16T12:36:40.291Z,7.03
2017-08-16T12:39:07.776Z,6.43
2017-08-16T12:41:35.373Z,7.73
2017-08-16T12:44:02.940Z,6.47
2017-08-16T12:46:30.557Z,6.30
2017-08-16T12:48:58.105Z,5.50
2017-08-16T12:51:25.659Z,4.23
2017-08-16T12:53:53.193Z,6.13
2017-08-16T12:56:20.676Z,5.57
2017-08-16T12:58:48.281Z,5.63
2017-08-16T13:01:15.817Z,6.17
2017-08-16T13:03:43.378Z,7.23
2017-08-16T13:06:10.877Z,7.40
2017-08-16T13:08:38.405Z,7.73
2017-08-16T13:11:06.003Z,8.30
2017-08-16T13:13:33.500Z,7.97
2017-08-16T13:16:00.990Z,8.00
2017-08-16T13:18:28.492Z,8.00
2017-08-16T13:20:56.753Z,6.70
2017-08-16T13:23:24.287Z,6.80
2017-08-16T13:25:51.873Z,6.93
2017-08-16T13:28:19.437Z,7.83
2017-08-16T13:30:46.946Z,7.53
2017-08-16T13:33:15.192Z,6.40
2017-08-16T13:35:42.700Z,8.03
2017-08-16T13:38:10.234Z,4.40
2017-08-16T13:40:37.751Z,5.47
2017-08-16T13:43:05.327Z,4.70
2017-08-16T13:45:32.833Z,5.07
2017-08-16T13:48:01.113Z,2.90
2017-08-16T13:50:28.678Z,3.53
2017-08-16T13:52:56.193Z,3.80
2017-08-16T13:55:23.737Z,4.20
2017-08-16T13:57:51.308Z,6.10
2017-08-16T14:00:18.830Z,4.53
2017-08-16T14:02:46.370Z,5.27
2017-08-16T14:05:13.858Z,3.87
2017-08-16T14:07:41.379Z,4.43
2017-08-16T14:10:08.874Z,4.00
2017-08-16T14:12:37.165Z,5.33
2017-08-16T14:15:04.653Z,3.97
2017-08-16T14:17:32.253Z,3.80
2017-08-16T14:19:59.737Z,4.60
2017-08-16T14:22:27.233Z,4.43
2017-08-16T14:24:54.726Z,7.00
2017-08-16T14:27:22.318Z,4.47
2017-08-16T14:29:49.869Z,3.60
2017-08-16T14:32:17.392Z,4.53
2017-08-16T14:34:44.890Z,4.83
2017-08-16T14:37:12.409Z,4.27
2017-08-16T14:39:39.892Z,5.10
2017-08-16T14:42:08.146Z,5.00
2017-08-16T14:44:35.720Z,9.47
2017-08-16T14:47:03.214Z,6.17
2017-08-16T14:49:30.818Z,6.70
2017-08-16T14:51:58.362Z,7.13
2017-08-16T14:54:25.872Z,6.00
2017-08-16T14:56:54.136Z,6.80
2017-08-16T14:59:21.731Z,6.27
2017-08-16T15:01:49.474Z,6.70
2017-08-16T15:04:17.039Z,8.20
2017-08-16T15:06:44.537Z,6.87
2017-08-16T15:09:12.933Z,8.50
2017-08-16T15:11:40.412Z,7.93
2017-08-16T15:14:07.909Z,9.67
2017-08-16T15:16:35.397Z,8.47
2017-08-16T15:19:03.006Z,10.23
2017-08-16T15:21:30.676Z,11.40
2017-08-16T15:23:58.198Z,9.97
2017-08-16T15:26:25.702Z,8.50
2017-08-16T15:28:53.306Z,8.47
2017-08-16T15:31:20.813Z,19.63
2017-08-16T15:33:48.309Z,11.60
2017-08-16T15:36:15.817Z,9.90
2017-08-16T15:38:43.301Z,7.70
2017-08-16T15:41:10.923Z,11.80
2017-08-16T15:43:38.517Z,8.57
2017-08-16T15:46:07.572Z,9.33
2017-08-16T15:48:35.788Z,10.63
2017-08-16T15:51:03.503Z,11.03
2017-08-16T15:53:32.355Z,8.23
2017-08-16T15:56:00.365Z,7.60
2017-08-16T15:58:35.889Z,7.10
2017-08-16T16:01:03.880Z,8.30
2017-08-16T16:03:33.980Z,7.73
2017-08-16T16:06:01.460Z,9.87
2017-08-16T16:08:29.280Z,9.90
2017-08-16T16:10:57.423Z,8.70
2017-08-16T16:13:33.785Z,8.97
2017-08-16T16:16:01.322Z,9.50
2017-08-16T16:18:28.882Z,8.97
2017-08-16T16:20:56.396Z,8.47
2017-08-16T16:23:40.070Z,12.40
2017-08-16T16:26:08.415Z,8.33
2017-08-16T16:28:37.324Z,7.53
2017-08-16T16:33:57.084Z,6.60
2017-08-16T16:36:30.703Z,8.50
2017-08-16T16:39:09.427Z,7.10
2017-08-16T16:41:39.663Z,9.13
2017-08-16T16:44:07.200Z,8.33
2017-08-16T16:46:34.718Z,8.10
2017-08-16T16:49:02.400Z,9.70
2017-08-16T16:51:29.977Z,8.90
2017-08-16T16:53:57.496Z,8.30
2017-08-16T16:56:29.208Z,8.00
2017-08-16T16:59:10.141Z,7.53
2017-08-16T17:01:37.667Z,8.43
2017-08-16T17:04:05.247Z,5.67
2017-08-16T17:06:32.861Z,7.53
2017-08-16T17:09:00.345Z,7.00
2017-08-16T17:11:27.842Z,6.87
2017-08-16T17:13:55.326Z,9.07
2017-08-16T17:16:22.933Z,8.33
2017-08-16T17:18:50.428Z,7.90
2017-08-16T17:21:18.016Z,7.70
2017-08-16T17:23:45.597Z,8.43
2017-08-16T17:26:13.126Z,9.03
2017-08-16T17:28:40.667Z,8.37
2017-08-16T17:31:08.168Z,7.17
2017-08-16T17:33:36.419Z,10.03
2017-08-16T17:36:03.933Z,8.87
2017-08-16T17:38:31.467Z,10.13
2017-08-16T17:40:59.013Z,7.80
2017-08-16T17:43:26.512Z,10.43
2017-08-16T17:45:54.896Z,10.77
2017-08-16T17:48:22.401Z,8.77
2017-08-16T17:50:53.461Z,9.70
2017-08-16T17:53:20.969Z,9.00
2017-08-16T17:55:48.547Z,13.50
2017-08-16T17:58:16.108Z,12.50
2017-08-16T18:00:43.679Z,9.07
2017-08-16T18:03:11.212Z,9.80
2017-08-16T18:05:38.698Z,9.50
2017-08-16T18:08:07.093Z,8.53
2017-08-16T18:10:34.732Z,9.10
2017-08-16T18:13:02.292Z,10.87
2017-08-16T18:15:29.818Z,8.70
2017-08-16T18:17:57.394Z,9.47
2017-08-16T18:20:25.130Z,11.03
2017-08-16T18:22:52.661Z,8.73
2017-08-16T18:25:20.200Z,9.60
2017-08-16T18:27:47.697Z,7.90
2017-08-16T18:30:15.217Z,11.20
2017-08-16T18:32:42.759Z,12.23
2017-08-16T18:35:10.260Z,9.63
2017-08-16T18:37:38.566Z,9.60
2017-08-16T18:40:06.070Z,8.83
2017-08-16T18:42:33.654Z,8.77
2017-08-16T18:45:01.185Z,8.67
2017-08-16T18:47:28.673Z,10.77
2017-08-16T18:49:56.253Z,12.53
2017-08-16T18:52:23.805Z,8.73
2017-08-16T18:54:51.308Z,8.67
2017-08-16T18:57:18.892Z,9.20
2017-08-16T18:59:46.476Z,9.50
2017-08-16T19:02:13.987Z,10.07
2017-08-16T19:04:41.504Z,9.80
2017-08-16T19:07:09.748Z,9.50
2017-08-16T19:09:37.328Z,9.90
2017-08-16T19:12:04.881Z,9.77
2017-08-16T19:14:32.405Z,12.97
2017-08-16T19:16:59.908Z,9.90
2017-08-16T19:19:27.528Z,15.37
2017-08-16T19:21:55.044Z,11.13
2017-08-16T19:24:22.589Z,10.47
2017-08-16T19:26:50.468Z,9.47
2017-08-16T19:29:17.996Z,12.27
2017-08-16T19:31:45.516Z,10.10
2017-08-16T19:34:13.098Z,10.30
2017-08-16T19:36:40.612Z,10.40
2017-08-16T19:39:08.102Z,11.70
2017-08-16T19:41:35.704Z,15.60
2017-08-16T19:44:03.189Z,13.20
2017-08-16T19:46:30.721Z,11.70
2017-08-16T19:48:58.212Z,10.27
2017-08-16T19:51:26.626Z,10.33
2017-08-16T19:53:54.128Z,13.40
2017-08-16T19:56:22.415Z,10.53
2017-08-16T19:58:49.953Z,10.47
2017-08-16T20:01:17.495Z,8.20
2017-08-16T20:03:45.042Z,7.63
2017-08-16T20:06:12.584Z,7.83
2017-08-16T20:08:40.151Z,9.30
2017-08-16T20:11:07.664Z,8.00
2017-08-16T20:13:35.215Z,8.10
2017-08-16T20:16:02.735Z,7.90
2017-08-16T20:18:30.254Z,6.43
2017-08-16T20:20:57.839Z,8.63
2017-08-16T20:23:25.384Z,10.10
2017-08-16T20:25:52.933Z,7.90
2017-08-16T20:28:20.490Z,8.40
2017-08-16T20:30:47.994Z,9.20
2017-08-16T20:33:16.354Z,8.50
2017-08-16T20:35:44.650Z,8.63
2017-08-16T20:38:12.149Z,10.10
2017-08-16T20:40:39.648Z,9.60
2017-08-16T20:43:07.134Z,8.57
2017-08-16T20:45:34.713Z,9.77
2017-08-16T20:48:02.208Z,15.50
2017-08-16T20:50:29.708Z,9.63
2017-08-16T20:52:57.330Z,9.07
2017-08-16T20:55:25.624Z,8.60
2017-08-16T20:57:53.104Z,9.27
2017-08-16T21:00:20.597Z,12.17
2017-08-16T21:02:48.105Z,11.80
2017-08-16T21:05:15.630Z,13.40
2017-08-16T21:07:43.152Z,13.37
2017-08-16T21:10:10.658Z,13.27
2017-08-16T21:12:39.032Z,15.10
2017-08-16T21:15:06.525Z,12.70
2017-08-16T21:17:34.117Z,11.50
2017-08-16T21:20:01.610Z,12.03
2017-08-16T21:22:29.116Z,14.53
2017-08-16T21:24:56.604Z,13.10
2017-08-16T21:27:24.104Z,13.90
2017-08-16T21:29:51.633Z,11.40
2017-08-16T21:32:19.181Z,9.90
2017-08-16T21:34:46.776Z,11.30
2017-08-16T21:37:14.339Z,10.53
2017-08-16T21:39:42.646Z,12.20
2017-08-16T21:42:10.167Z,10.93
2017-08-16T21:44:37.725Z,9.80
2017-08-16T21:47:05.204Z,9.30
2017-08-16T21:49:32.711Z,13.10
2017-08-16T21:52:00.196Z,8.90
2017-08-16T21:54:27.817Z,10.60
2017-08-16T21:56:55.485Z,11.33
2017-08-16T21:59:22.989Z,10.80
2017-08-16T22:01:50.490Z,14.23
2017-08-16T22:04:18.786Z,13.83
2017-08-16T22:06:46.359Z,13.60
2017-08-16T22:09:13.997Z,10.30
2017-08-16T22:11:41.520Z,12.23
2017-08-16T22:14:09.094Z,12.40
2017-08-16T22:16:36.612Z,10.30
2017-08-16T22:19:04.149Z,12.97
2017-08-16T22:21:31.725Z,12.67
2017-08-16T22:23:59.250Z,12.30
2017-08-16T22:26:26.757Z,11.37
2017-08-16T22:28:55.007Z,10.03
2017-08-16T22:31:23.653Z,11.00
2017-08-16T22:33:51.282Z,10.10
2017-08-16T22:36:18.908Z,9.80
2017-08-16T22:38:46.583Z,12.23
2017-08-16T22:41:14.201Z,9.97
2017-08-16T22:43:41.693Z,10.27
2017-08-16T22:46:09.394Z,10.43
2017-08-16T22:48:36.961Z,10.17
2017-08-16T22:51:04.469Z,11.60
2017-08-16T22:53:31.965Z,14.67
2017-08-16T22:55:59.502Z,9.60
2017-08-16T22:58:27.013Z,11.67
2017-08-16T23:00:54.513Z,12.43
2017-08-16T23:03:22.000Z,12.23
2017-08-16T23:05:49.531Z,11.73
2017-08-16T23:08:17.093Z,10.23
2017-08-16T23:10:44.689Z,11.77
2017-08-16T23:13:12.271Z,11.50
2017-08-16T23:15:39.817Z,12.80
2017-08-16T23:18:07.325Z,13.33
2017-08-16T23:20:34.930Z,13.07
2017-08-16T23:23:02.442Z,13.03
2017-08-16T23:25:30.019Z,12.93
2017-08-16T23:27:57.529Z,12.73
2017-08-16T23:30:25.080Z,13.70
2017-08-16T23:32:52.624Z,14.17
2017-08-16T23:35:20.168Z,12.30
2017-08-16T23:37:47.688Z,13.10
2017-08-16T23:40:15.272Z,17.17
2017-08-16T23:42:42.814Z,16.30
2017-08-16T23:45:10.312Z,10.50
2017-08-16T23:47:37.811Z,14.10
2017-08-16T23:50:05.313Z,10.23
2017-08-16T23:52:33.696Z,12.20
2017-08-16T23:55:01.276Z,14.53
2017-08-16T23:57:28.805Z,14.83
2017-08-16T23:59:56.308Z,14.70
